Maria S. Merian — DBBT — position and weather

sailwx.info

Track history (hours):
 
Tides and Currents Weather Stations Pressure Air Temp Water Temp Dewpoint Dewpoint Depression Visibility Wind Speed Wind Dir Waves Ship Positions

Oceanographic research ship Maria S. Merian (Germany)

Last reported at 2015-Aug-01 17:32 UTC. Time now 2015-Aug-01 18:19 UTC.
Position N 64°10' W 051°43'.

Length 94.8 m; beam 19.2 m; draft 6.5 m.

Type: Other ship. MMSI: 211753000.

Date/timePositionNaut miles runAvg speedWind from/ knotsBaromVisibWave heightAir tempDewpointWater temp
2015-Aug-01 17:32N 64°10' W 051°43'2 1.8
2015-Aug-01 16:33N 64°11' W 051°47'1 1.2
2015-Aug-01 15:33N 64°10' W 051°47'3 5.5
2015-Aug-01 15:00N 64°12' W 051°42'2 0.1 190 / 41019.7 8.8 4.1 7.2
2015-Aug-01 02:20N 64°10' W 051°43'0 0.0
2015-Aug-01 01:31N 64°10' W 051°43'0 0.0
2015-Aug-01 00:33N 64°10' W 051°43'0 0.0
2015-Jul-31 22:30N 64°10' W 051°43'0 0.0
2015-Jul-31 20:31N 64°10' W 051°43'0 0.0
2015-Jul-31 19:31N 64°10' W 051°43'0 0.0
2015-Jul-31 18:33N 64°10' W 051°43'0 0.1
2015-Jul-31 17:33N 64°10' W 051°43'0 0.5
2015-Jul-31 16:32N 64°10' W 051°42'0 0.0
2015-Jul-31 15:30N 64°10' W 051°42'2 4.1
2015-Jul-31 15:00N 64°12' W 051°42'2 4.9 210 / 41021.1 6.9 3.6 7.0
2015-Jul-31 14:33N 64°10' W 051°42'2 3.8
2015-Jul-31 14:00N 64°12' W 051°42'2 4.9 999 / 21021.0 8.2 7.1 6.9
2015-Jul-31 13:34N 64°10' W 051°42'0 0.0
2015-Jul-31 07:33N 64°10' W 051°42'0 0.0
2015-Jul-31 06:33N 64°10' W 051°42'0 0.0
2015-Jul-31 05:32N 64°10' W 051°42'0 0.0
2015-Jul-31 04:32N 64°10' W 051°42'0 0.0
2015-Jul-31 03:31N 64°10' W 051°42'0 0.0
2015-Jul-31 02:31N 64°10' W 051°42'0 0.0
2015-Jul-31 01:33N 64°10' W 051°42'0 0.0
2015-Jul-31 00:33N 64°10' W 051°42'0 0.0
2015-Jul-30 23:32N 64°10' W 051°42'0 0.0
2015-Jul-30 22:32N 64°10' W 051°42'0 0.0
2015-Jul-30 21:31N 64°10' W 051°42'0 0.0
2015-Jul-30 20:31N 64°10' W 051°42'0 0.0
2015-Jul-30 19:33N 64°10' W 051°42'0 0.0
2015-Jul-30 18:33N 64°10' W 051°42'0 0.0
2015-Jul-30 17:32N 64°10' W 051°42'0 0.0
2015-Jul-30 16:32N 64°10' W 051°42'0 0.0
2015-Jul-30 15:31N 64°10' W 051°42'0 0.0
2015-Jul-30 14:31N 64°10' W 051°42'0 0.0
2015-Jul-30 13:09N 64°10' W 051°42'0 0.0
2015-Jul-30 11:34N 64°10' W 051°42'0 0.0
2015-Jul-30 10:33N 64°10' W 051°42'611.5
2015-Jul-30 10:00N 64°06' W 051°54'2 3.9 999 1021.8 3.8 3.8 6.0
2015-Jul-30 09:33N 64°08' W 051°53'7 6.7
2015-Jul-30 08:33N 64°04' W 052°06'6 6.5
2015-Jul-30 07:33N 64°04' W 052°21'7 7.1
2015-Jul-30 06:34N 64°09' W 052°33'6 6.4
2015-Jul-30 05:33N 64°14' W 052°42'6 6.3
2015-Jul-30 04:33N 64°20' W 052°47'7 6.6
2015-Jul-30 03:33N 64°25' W 052°56'5 9.3
2015-Jul-30 03:00N 64°30' W 053°00'2 4.1 350 / 41021.7 3.8 2.8 7.5
2015-Jul-30 02:33N 64°31' W 053°03'5 8.8
2015-Jul-30 02:00N 64°36' W 053°06'2 4.8 310 / 41021.6 4.0 2.9 7.9
2015-Jul-30 01:34N 64°38' W 053°09'5 8.1
2015-Jul-30 01:00N 64°42' W 053°12'2 5.3 300 / 81021.3 4.1 3.1 7.2
2015-Jul-30 00:34N 64°44' W 053°15'7 7.0
2015-Jul-29 23:34N 64°50' W 053°21'7 7.1
2015-Jul-29 22:33N 64°57' W 053°27'7 7.2
2015-Jul-29 21:33N 65°04' W 053°33'7 7.2
2015-Jul-29 20:33N 65°10' W 053°40'814.8
2015-Jul-29 20:00N 65°18' W 053°48'1 2.9 310 / 101020.9 3.8 3.2 8.4
2015-Jul-29 19:33N 65°17' W 053°46'7 7.2
2015-Jul-29 18:34N 65°24' W 053°53'4 4.4
2015-Jul-29 17:33N 65°28' W 053°57'8 7.8
2015-Jul-29 16:33N 65°35' W 054°04'8 8.0
2015-Jul-29 15:33N 65°42' W 054°11'80 8.4
2015-Jul-29 06:00N 67°00' W 055°00'30 7.6 330 / 61019.3 2.2 2.1 5.3
2015-Jul-29 02:00N 67°30' W 055°12'49 8.1 360 / 61018.9 2.9 2.8 5.0
2015-Jul-28 20:00N 68°18' W 055°36'42 8.4 260 / 41018.3 4.7 4.2 6.6
2015-Jul-28 15:00N 69°00' W 055°48'107 8.9 060 / 81017.7 6.0 4.6 6.2
2015-Jul-28 03:00N 70°42' W 057°18'39 9.6 010 / 81017.3 7.0 4.7 6.4
2015-Jul-27 23:00N 71°18' W 058°00'7 7.1 340 / 101016.7 7.6 5.2 8.1
2015-Jul-27 22:00N 71°24' W 058°12'7 7.1 330 / 101016.6 7.5 5.2 8.4
2015-Jul-27 21:00N 71°30' W 058°24'1312.6 330 / 61016.6 7.2 4.7 7.5
2015-Jul-27 20:00N 71°42' W 058°36'6 6.3 330 / 41016.6 6.8 4.8 6.5
2015-Jul-27 19:00N 71°48' W 058°42'61 4.7 020 / 61016.6 6.6 3.4 6.3
2015-Jul-27 06:00N 72°30' W 061°06'8 8.1 330 / 121016.1 6.3 4.5 7.2
2015-Jul-27 05:00N 72°24' W 061°24'14 4.7 330 / 81016.1 5.5 4.4 7.1
2015-Jul-27 02:00N 72°12' W 061°00'16 4.1 340 / 81016.3 5.8 4.7 6.4
2015-Jul-26 22:00N 72°24' W 060°24'5 5.4 010 / 121016.1 9.1 6.2 8.2
2015-Jul-26 21:00N 72°24' W 060°42'38 7.6 360 / 121016.2 9.0 5.5 8.5
2015-Jul-26 16:00N 72°54' W 062°00'32 8.1 340 / 61016.2 5.2 3.7 7.6
2015-Jul-26 12:00N 73°00' W 060°12'17 8.4 020 / 101015.4 6.8 5.2 8.0
2015-Jul-26 10:00N 73°06' W 059°18'15 7.6 020 / 101014.9 6.8 5.6 8.3
2015-Jul-26 08:00N 73°12' W 058°30'14 6.8 050 / 61014.6 6.7 5.7 7.7
2015-Jul-26 06:00N 73°18' W 057°48'8 7.9 030 / 81014.3 6.4 5.3 6.6
2015-Jul-26 05:00N 73°24' W 057°30'19 1.0 010 / 101014.1 6.0 5.3 6.0
2015-Jul-25 09:00N 73°36' W 058°24'1212.0 190 / 61011.5 5.2 4.5 6.7
2015-Jul-25 08:00N 73°48' W 058°24'6 2.1 200 / 61011.8 5.3 4.7 6.3
2015-Jul-25 05:00N 73°42' W 058°18'2 0.8 250 / 101012.5 6.6 5.2 7.0
2015-Jul-25 03:00N 73°42' W 058°12'5 0.1 270 / 141013.6 6.0 5.6 7.1
2015-Jul-23 12:00N 73°42' W 057°54'10 1.2 150 / 161019.9 7.2 5.7 6.1
2015-Jul-23 03:00N 73°36' W 057°24'37 4.1 150 / 171017.4 5.3 5.2 5.3
2015-Jul-22 18:00N 74°12' W 057°48'   140 / 191014.9 6.5 5.1 6.7
Track history (hours):
 
Tides and Currents Weather Stations Pressure Air Temp Water Temp Dewpoint Dewpoint Depression Visibility Wind Speed Wind Dir Waves Ship Positions

Oceanographic research ship Maria S. Merian (Germany)

Last reported at 2015-Aug-01 17:32 UTC. Time now 2015-Aug-01 18:19 UTC.
Position N 64°10' W 051°43'.

Length 94.8 m; beam 19.2 m; draft 6.5 m.

Type: Other ship. MMSI: 211753000.

Date/timePositionNaut miles runAvg speedWind from/ knotsBaromVisibWave heightAir tempDewpointWater temp
2015-Aug-01 17:32N 64°10' W 051°43'2 1.8
2015-Aug-01 16:33N 64°11' W 051°47'1 1.2
2015-Aug-01 15:33N 64°10' W 051°47'3 5.5
2015-Aug-01 15:00N 64°12' W 051°42'2 0.1 190 / 41019.7 8.8 4.1 7.2
2015-Aug-01 02:20N 64°10' W 051°43'0 0.0
2015-Aug-01 01:31N 64°10' W 051°43'0 0.0
2015-Aug-01 00:33N 64°10' W 051°43'0 0.0
2015-Jul-31 22:30N 64°10' W 051°43'0 0.0
2015-Jul-31 20:31N 64°10' W 051°43'0 0.0
2015-Jul-31 19:31N 64°10' W 051°43'0 0.0
2015-Jul-31 18:33N 64°10' W 051°43'0 0.1
2015-Jul-31 17:33N 64°10' W 051°43'0 0.5
2015-Jul-31 16:32N 64°10' W 051°42'0 0.0
2015-Jul-31 15:30N 64°10' W 051°42'2 4.1
2015-Jul-31 15:00N 64°12' W 051°42'2 4.9 210 / 41021.1 6.9 3.6 7.0
2015-Jul-31 14:33N 64°10' W 051°42'2 3.8
2015-Jul-31 14:00N 64°12' W 051°42'2 4.9 999 / 21021.0 8.2 7.1 6.9
2015-Jul-31 13:34N 64°10' W 051°42'0 0.0
2015-Jul-31 07:33N 64°10' W 051°42'0 0.0
2015-Jul-31 06:33N 64°10' W 051°42'0 0.0
2015-Jul-31 05:32N 64°10' W 051°42'0 0.0
2015-Jul-31 04:32N 64°10' W 051°42'0 0.0
2015-Jul-31 03:31N 64°10' W 051°42'0 0.0
2015-Jul-31 02:31N 64°10' W 051°42'0 0.0
2015-Jul-31 01:33N 64°10' W 051°42'0 0.0
2015-Jul-31 00:33N 64°10' W 051°42'0 0.0
2015-Jul-30 23:32N 64°10' W 051°42'0 0.0
2015-Jul-30 22:32N 64°10' W 051°42'0 0.0
2015-Jul-30 21:31N 64°10' W 051°42'0 0.0
2015-Jul-30 20:31N 64°10' W 051°42'0 0.0
2015-Jul-30 19:33N 64°10' W 051°42'0 0.0
2015-Jul-30 18:33N 64°10' W 051°42'0 0.0
2015-Jul-30 17:32N 64°10' W 051°42'0 0.0
2015-Jul-30 16:32N 64°10' W 051°42'0 0.0
2015-Jul-30 15:31N 64°10' W 051°42'0 0.0
2015-Jul-30 14:31N 64°10' W 051°42'0 0.0
2015-Jul-30 13:09N 64°10' W 051°42'0 0.0
2015-Jul-30 11:34N 64°10' W 051°42'0 0.0
2015-Jul-30 10:33N 64°10' W 051°42'611.5
2015-Jul-30 10:00N 64°06' W 051°54'2 3.9 999 1021.8 3.8 3.8 6.0
2015-Jul-30 09:33N 64°08' W 051°53'7 6.7
2015-Jul-30 08:33N 64°04' W 052°06'6 6.5
2015-Jul-30 07:33N 64°04' W 052°21'7 7.1
2015-Jul-30 06:34N 64°09' W 052°33'6 6.4
2015-Jul-30 05:33N 64°14' W 052°42'6 6.3
2015-Jul-30 04:33N 64°20' W 052°47'7 6.6
2015-Jul-30 03:33N 64°25' W 052°56'5 9.3
2015-Jul-30 03:00N 64°30' W 053°00'2 4.1 350 / 41021.7 3.8 2.8 7.5
2015-Jul-30 02:33N 64°31' W 053°03'5 8.8
2015-Jul-30 02:00N 64°36' W 053°06'2 4.8 310 / 41021.6 4.0 2.9 7.9
2015-Jul-30 01:34N 64°38' W 053°09'5 8.1
2015-Jul-30 01:00N 64°42' W 053°12'2 5.3 300 / 81021.3 4.1 3.1 7.2
2015-Jul-30 00:34N 64°44' W 053°15'7 7.0
2015-Jul-29 23:34N 64°50' W 053°21'7 7.1
2015-Jul-29 22:33N 64°57' W 053°27'7 7.2
2015-Jul-29 21:33N 65°04' W 053°33'7 7.2
2015-Jul-29 20:33N 65°10' W 053°40'814.8
2015-Jul-29 20:00N 65°18' W 053°48'1 2.9 310 / 101020.9 3.8 3.2 8.4
2015-Jul-29 19:33N 65°17' W 053°46'7 7.2
2015-Jul-29 18:34N 65°24' W 053°53'4 4.4
2015-Jul-29 17:33N 65°28' W 053°57'8 7.8
2015-Jul-29 16:33N 65°35' W 054°04'8 8.0
2015-Jul-29 15:33N 65°42' W 054°11'80 8.4
2015-Jul-29 06:00N 67°00' W 055°00'30 7.6 330 / 61019.3 2.2 2.1 5.3
2015-Jul-29 02:00N 67°30' W 055°12'49 8.1 360 / 61018.9 2.9 2.8 5.0
2015-Jul-28 20:00N 68°18' W 055°36'42 8.4 260 / 41018.3 4.7 4.2 6.6
2015-Jul-28 15:00N 69°00' W 055°48'107 8.9 060 / 81017.7 6.0 4.6 6.2
2015-Jul-28 03:00N 70°42' W 057°18'39 9.6 010 / 81017.3 7.0 4.7 6.4
2015-Jul-27 23:00N 71°18' W 058°00'7 7.1 340 / 101016.7 7.6 5.2 8.1
2015-Jul-27 22:00N 71°24' W 058°12'7 7.1 330 / 101016.6 7.5 5.2 8.4
2015-Jul-27 21:00N 71°30' W 058°24'1312.6 330 / 61016.6 7.2 4.7 7.5
2015-Jul-27 20:00N 71°42' W 058°36'6 6.3 330 / 41016.6 6.8 4.8 6.5
2015-Jul-27 19:00N 71°48' W 058°42'61 4.7 020 / 61016.6 6.6 3.4 6.3
2015-Jul-27 06:00N 72°30' W 061°06'8 8.1 330 / 121016.1 6.3 4.5 7.2
2015-Jul-27 05:00N 72°24' W 061°24'14 4.7 330 / 81016.1 5.5 4.4 7.1
2015-Jul-27 02:00N 72°12' W 061°00'16 4.1 340 / 81016.3 5.8 4.7 6.4
2015-Jul-26 22:00N 72°24' W 060°24'5 5.4 010 / 121016.1 9.1 6.2 8.2
2015-Jul-26 21:00N 72°24' W 060°42'38 7.6 360 / 121016.2 9.0 5.5 8.5
2015-Jul-26 16:00N 72°54' W 062°00'32 8.1 340 / 61016.2 5.2 3.7 7.6
2015-Jul-26 12:00N 73°00' W 060°12'17 8.4 020 / 101015.4 6.8 5.2 8.0
2015-Jul-26 10:00N 73°06' W 059°18'15 7.6 020 / 101014.9 6.8 5.6 8.3
2015-Jul-26 08:00N 73°12' W 058°30'14 6.8 050 / 61014.6 6.7 5.7 7.7
2015-Jul-26 06:00N 73°18' W 057°48'8 7.9 030 / 81014.3 6.4 5.3 6.6
2015-Jul-26 05:00N 73°24' W 057°30'19 1.0 010 / 101014.1 6.0 5.3 6.0
2015-Jul-25 09:00N 73°36' W 058°24'1212.0 190 / 61011.5 5.2 4.5 6.7
2015-Jul-25 08:00N 73°48' W 058°24'6 2.1 200 / 61011.8 5.3 4.7 6.3
2015-Jul-25 05:00N 73°42' W 058°18'2 0.8 250 / 101012.5 6.6 5.2 7.0
2015-Jul-25 03:00N 73°42' W 058°12'5 0.1 270 / 141013.6 6.0 5.6 7.1
2015-Jul-23 12:00N 73°42' W 057°54'10 1.2 150 / 161019.9 7.2 5.7 6.1
2015-Jul-23 03:00N 73°36' W 057°24'37 4.1 150 / 171017.4 5.3 5.2 5.3
2015-Jul-22 18:00N 74°12' W 057°48'   140 / 191014.9 6.5 5.1 6.7

Dump ship's entire track history